createdAt,value
2018-11-03T00:00:46.290Z,99.99
2018-11-03T00:01:46.284Z,99.99
2018-11-03T00:02:46.479Z,99.99
2018-11-03T00:03:46.096Z,99.99
2018-11-03T00:04:46.033Z,99.99
2018-11-03T00:05:46.264Z,99.99
2018-11-03T00:06:46.031Z,99.99
2018-11-03T00:07:46.039Z,99.99
2018-11-03T00:08:45.987Z,99.99
2018-11-03T00:09:45.971Z,99.99
2018-11-03T00:10:46.224Z,99.99
2018-11-03T00:11:46.238Z,99.99
2018-11-03T00:12:46.474Z,99.99
2018-11-03T00:13:46.233Z,99.99
2018-11-03T00:14:45.971Z,99.99
2018-11-03T00:15:46.212Z,99.99
2018-11-03T00:16:46.213Z,99.99
2018-11-03T00:17:46.196Z,99.99
2018-11-03T00:18:46.211Z,99.99
2018-11-03T00:19:46.202Z,99.99
2018-11-03T00:20:46.177Z,99.99
2018-11-03T00:21:45.927Z,99.99
2018-11-03T00:22:46.253Z,99.99
2018-11-03T00:23:45.894Z,99.99
2018-11-03T00:24:46.171Z,99.99
2018-11-03T00:25:46.177Z,99.99
2018-11-03T00:26:46.137Z,99.99
2018-11-03T00:27:46.153Z,99.99
2018-11-03T00:28:45.926Z,99.99
2018-11-03T00:29:45.866Z,99.99
2018-11-03T00:30:46.122Z,99.99
2018-11-03T00:31:45.880Z,99.99
2018-11-03T00:32:46.113Z,99.99
2018-11-03T00:33:46.113Z,99.99
2018-11-03T00:34:45.843Z,99.99
2018-11-03T00:35:46.152Z,99.99
2018-11-03T00:36:45.832Z,99.99
2018-11-03T00:37:45.822Z,99.99
2018-11-03T00:38:46.088Z,99.99
2018-11-03T00:39:45.830Z,99.99
2018-11-03T00:40:45.814Z,99.99
2018-11-03T00:41:46.186Z,99.99
2018-11-03T00:42:46.216Z,99.99
2018-11-03T00:43:46.077Z,99.99
2018-11-03T00:44:45.811Z,99.99
2018-11-03T00:45:45.784Z,99.99
2018-11-03T00:46:45.772Z,99.99
2018-11-03T00:47:46.062Z,99.99
2018-11-03T00:48:46.022Z,99.99
2018-11-03T00:49:46.021Z,99.99
2018-11-03T00:50:46.021Z,99.99
2018-11-03T00:51:45.758Z,99.99
2018-11-03T00:52:46.016Z,99.99
2018-11-03T00:53:45.996Z,99.99
2018-11-03T00:54:46.000Z,99.99
2018-11-03T00:55:45.985Z,99.99
2018-11-03T00:56:45.984Z,99.99
2018-11-03T00:57:45.984Z,99.99
2018-11-03T00:58:45.744Z,99.99
2018-11-03T00:59:45.983Z,99.99
2018-11-03T01:00:45.970Z,99.99
2018-11-03T01:01:45.739Z,99.99
2018-11-03T01:02:45.710Z,99.99
2018-11-03T01:03:45.692Z,99.99
2018-11-03T01:04:45.960Z,99.99
2018-11-03T01:05:45.944Z,99.99
2018-11-03T01:06:45.936Z,99.99
2018-11-03T01:07:45.928Z,99.99
2018-11-03T01:08:45.928Z,99.99
2018-11-03T01:09:45.932Z,99.99
2018-11-03T01:10:45.930Z,99.99
2018-11-03T01:11:46.162Z,99.99
2018-11-03T01:12:45.886Z,99.99
2018-11-03T01:13:45.888Z,99.99
2018-11-03T01:14:45.625Z,99.99
2018-11-03T01:15:45.636Z,99.99
2018-11-03T01:16:45.977Z,99.99
2018-11-03T01:17:45.755Z,99.99
2018-11-03T01:18:45.614Z,99.99
2018-11-03T01:19:45.597Z,99.99
2018-11-03T01:20:45.848Z,99.99
2018-11-03T01:21:45.592Z,99.99
2018-11-03T01:22:45.585Z,99.99
2018-11-03T01:23:46.143Z,99.99
2018-11-03T01:24:45.827Z,99.99
2018-11-03T01:25:45.558Z,99.99
2018-11-03T01:26:45.559Z,99.99
2018-11-03T01:27:45.550Z,99.99
2018-11-03T01:28:45.799Z,99.99
2018-11-03T01:29:45.813Z,99.99
2018-11-03T01:30:45.798Z,99.99
2018-11-03T01:31:45.944Z,99.99
2018-11-03T01:32:45.973Z,99.99
2018-11-03T01:33:45.777Z,99.99
2018-11-03T01:34:45.773Z,99.99
2018-11-03T01:35:45.769Z,99.99
2018-11-03T01:36:45.499Z,99.99
2018-11-03T01:37:45.763Z,99.99
2018-11-03T01:38:45.745Z,99.99
2018-11-03T01:39:45.766Z,99.99
2018-11-03T01:40:45.740Z,99.99
2018-11-03T01:41:45.727Z,99.99
2018-11-03T01:42:45.722Z,99.99
2018-11-03T01:43:45.728Z,99.99
2018-11-03T01:44:45.720Z,99.99
2018-11-03T01:45:45.708Z,99.99
2018-11-03T01:46:45.445Z,99.99
2018-11-03T01:47:45.711Z,99.99
2018-11-03T01:48:45.699Z,99.99
2018-11-03T01:49:45.420Z,99.99
2018-11-03T01:50:45.676Z,99.99
2018-11-03T01:51:45.409Z,99.99
2018-11-03T01:52:45.658Z,99.99
2018-11-03T01:53:45.676Z,99.99
2018-11-03T01:54:45.657Z,99.99
2018-11-03T01:55:45.652Z,99.99
2018-11-03T01:56:45.397Z,99.99
2018-11-03T01:57:45.640Z,99.99
2018-11-03T01:58:45.637Z,99.99
2018-11-03T01:59:45.382Z,99.99
2018-11-03T02:00:45.625Z,99.99
2018-11-03T02:01:45.619Z,99.99
2018-11-03T02:02:45.908Z,99.99
2018-11-03T02:03:45.613Z,99.99
2018-11-03T02:04:45.345Z,99.99
2018-11-03T02:05:45.613Z,99.99
2018-11-03T02:06:45.352Z,99.99
2018-11-03T02:07:45.583Z,99.99
2018-11-03T02:08:45.581Z,99.99
2018-11-03T02:09:45.576Z,99.99
2018-11-03T02:10:45.572Z,99.99
2018-11-03T02:11:45.308Z,99.99
2018-11-03T02:12:45.895Z,99.99
2018-11-03T02:13:45.293Z,99.99
2018-11-03T02:14:45.552Z,99.99
2018-11-03T02:15:45.331Z,99.99
2018-11-03T02:16:45.536Z,99.99
2018-11-03T02:17:45.271Z,99.99
2018-11-03T02:18:45.522Z,99.99
2018-11-03T02:19:45.278Z,99.99
2018-11-03T02:20:45.518Z,99.99
2018-11-03T02:21:45.315Z,99.99
2018-11-03T02:22:45.244Z,99.99
2018-11-03T02:23:45.497Z,99.99
2018-11-03T02:24:45.231Z,99.99
2018-11-03T02:25:45.506Z,99.99
2018-11-03T02:26:45.514Z,99.99
2018-11-03T02:27:45.467Z,99.99
2018-11-03T02:28:45.473Z,99.99
2018-11-03T02:29:45.473Z,99.99
2018-11-03T02:30:45.461Z,99.99
2018-11-03T02:31:45.193Z,99.99
2018-11-03T02:32:45.210Z,99.99
2018-11-03T02:33:45.434Z,99.99
2018-11-03T02:34:45.430Z,99.99
2018-11-03T02:35:45.162Z,99.99
2018-11-03T02:36:45.427Z,99.99
2018-11-03T02:37:45.153Z,99.99
2018-11-03T02:38:45.148Z,99.99
2018-11-03T02:39:45.435Z,99.99
2018-11-03T02:40:45.400Z,99.99
2018-11-03T02:41:45.403Z,99.99
2018-11-03T02:42:45.410Z,99.99
2018-11-03T02:43:45.388Z,99.99
2018-11-03T02:44:45.426Z,99.99
2018-11-03T02:45:45.387Z,99.99
2018-11-03T02:46:45.430Z,99.99
2018-11-03T02:47:45.353Z,99.99
2018-11-03T02:48:45.345Z,99.99
2018-11-03T02:49:45.432Z,99.99
2018-11-03T02:50:45.339Z,99.99
2018-11-03T02:51:45.334Z,99.99
2018-11-03T02:52:45.325Z,99.99
2018-11-03T02:53:45.067Z,99.99
2018-11-03T02:54:45.052Z,99.99
2018-11-03T02:55:45.332Z,99.99
2018-11-03T02:56:45.049Z,99.99
2018-11-03T02:57:45.300Z,99.99
2018-11-03T02:58:45.037Z,99.99
2018-11-03T02:59:45.298Z,99.99
2018-11-03T03:00:45.035Z,99.99
2018-11-03T03:01:45.052Z,99.99
2018-11-03T03:02:45.282Z,99.99
2018-11-03T03:03:45.257Z,99.99
2018-11-03T03:04:45.264Z,99.99
2018-11-03T03:05:45.003Z,99.99
2018-11-03T03:06:45.264Z,99.99
2018-11-03T03:07:45.244Z,99.99
2018-11-03T03:08:44.977Z,99.99
2018-11-03T03:09:44.972Z,99.99
2018-11-03T03:10:44.964Z,99.99
2018-11-03T03:11:45.217Z,99.99
2018-11-03T03:12:44.949Z,99.99
2018-11-03T03:13:45.213Z,99.99
2018-11-03T03:14:45.204Z,99.99
2018-11-03T03:15:45.196Z,99.99
2018-11-03T03:16:45.195Z,99.99
2018-11-03T03:17:44.922Z,99.99
2018-11-03T03:18:45.173Z,99.99
2018-11-03T03:19:45.291Z,99.99
2018-11-03T03:20:45.255Z,99.99
2018-11-03T03:21:44.919Z,99.99
2018-11-03T03:22:44.906Z,99.99
2018-11-03T03:23:45.161Z,99.99
2018-11-03T03:24:45.143Z,99.99
2018-11-03T03:25:44.873Z,99.99
2018-11-03T03:26:45.151Z,99.99
2018-11-03T03:27:44.864Z,99.99
2018-11-03T03:28:45.324Z,99.99
2018-11-03T03:29:45.502Z,99.99
2018-11-03T03:30:45.124Z,99.99
2018-11-03T03:31:45.130Z,99.99
2018-11-03T03:32:45.330Z,99.99
2018-11-03T03:33:45.144Z,99.99
2018-11-03T03:34:45.081Z,99.99
2018-11-03T03:35:45.082Z,99.99
2018-11-03T03:36:44.812Z,99.99
2018-11-03T03:37:44.812Z,99.99
2018-11-03T03:38:44.801Z,99.99
2018-11-03T03:39:45.060Z,99.99
2018-11-03T03:40:45.065Z,99.99
2018-11-03T03:41:45.073Z,99.99
2018-11-03T03:42:45.394Z,99.99
2018-11-03T03:43:44.784Z,99.99
2018-11-03T03:44:45.038Z,99.99
2018-11-03T03:45:45.044Z,99.99
2018-11-03T03:46:45.038Z,99.99
2018-11-03T03:47:45.030Z,99.99
2018-11-03T03:48:45.052Z,99.99
2018-11-03T03:49:45.001Z,99.99
2018-11-03T03:50:44.749Z,99.99
2018-11-03T03:51:44.989Z,99.99
2018-11-03T03:52:45.205Z,99.99
2018-11-03T03:53:44.975Z,99.99
2018-11-03T03:54:44.704Z,99.99
2018-11-03T03:55:44.708Z,99.99
2018-11-03T03:56:44.953Z,99.99
2018-11-03T03:57:44.973Z,99.99
2018-11-03T03:58:44.692Z,99.99
2018-11-03T03:59:44.982Z,99.99
2018-11-03T04:00:44.674Z,99.99
2018-11-03T04:01:44.954Z,99.99
2018-11-03T04:02:44.673Z,99.99
2018-11-03T04:03:44.653Z,99.99
2018-11-03T04:04:44.924Z,99.99
2018-11-03T04:05:44.649Z,99.99
2018-11-03T04:06:44.648Z,99.99
2018-11-03T04:07:44.979Z,99.99
2018-11-03T04:08:44.906Z,99.99
2018-11-03T04:09:44.636Z,99.99
2018-11-03T04:10:44.898Z,99.99
2018-11-03T04:11:44.902Z,99.99
2018-11-03T04:12:44.633Z,99.99
2018-11-03T04:13:44.858Z,99.99
2018-11-03T04:14:44.880Z,99.99
2018-11-03T04:15:44.593Z,99.99
2018-11-03T04:16:44.852Z,99.99
2018-11-03T04:17:44.842Z,99.99
2018-11-03T04:18:45.193Z,99.99
2018-11-03T04:19:44.828Z,99.99
2018-11-03T04:20:44.851Z,99.99
2018-11-03T04:21:44.562Z,99.99
2018-11-03T04:22:44.564Z,99.99
2018-11-03T04:23:44.820Z,99.99
2018-11-03T04:24:44.811Z,99.99
2018-11-03T04:25:44.824Z,99.99
2018-11-03T04:26:44.536Z,99.99
2018-11-03T04:27:44.817Z,99.99
2018-11-03T04:28:44.783Z,99.99
2018-11-03T04:29:44.819Z,99.99
2018-11-03T04:30:44.773Z,99.99
2018-11-03T04:31:44.928Z,99.99
2018-11-03T04:32:44.767Z,99.99
2018-11-03T04:33:44.774Z,99.99
2018-11-03T04:34:44.759Z,99.99
2018-11-03T04:35:44.757Z,99.99
2018-11-03T04:36:44.492Z,99.99
2018-11-03T04:37:44.473Z,99.99
2018-11-03T04:38:44.510Z,99.99
2018-11-03T04:39:44.755Z,99.99
2018-11-03T04:40:44.726Z,99.99
2018-11-03T04:41:44.980Z,99.99
2018-11-03T04:42:44.730Z,99.99
2018-11-03T04:43:44.696Z,99.99
2018-11-03T04:44:44.729Z,99.99
2018-11-03T04:45:44.692Z,99.99
2018-11-03T04:46:44.698Z,99.99
2018-11-03T04:47:44.417Z,99.99
2018-11-03T04:48:44.923Z,99.99
2018-11-03T04:49:44.668Z,99.99
2018-11-03T04:50:44.399Z,99.99
2018-11-03T04:51:44.998Z,99.99
2018-11-03T04:52:44.686Z,99.99
2018-11-03T04:53:44.390Z,99.99
2018-11-03T04:54:44.645Z,99.99
2018-11-03T04:55:44.637Z,99.99
2018-11-03T04:56:44.369Z,99.99
2018-11-03T04:57:44.659Z,99.99
2018-11-03T04:58:44.611Z,99.99
2018-11-03T04:59:44.354Z,99.99
2018-11-03T05:00:44.615Z,99.99
2018-11-03T05:01:44.848Z,99.99
2018-11-03T05:02:44.348Z,99.99
2018-11-03T05:03:44.582Z,99.99
2018-11-03T05:04:44.317Z,99.99
2018-11-03T05:05:44.311Z,99.99
2018-11-03T05:06:44.576Z,99.99
2018-11-03T05:07:44.301Z,99.99
2018-11-03T05:08:44.559Z,99.99
2018-11-03T05:09:44.669Z,99.99
2018-11-03T05:10:44.285Z,99.99
2018-11-03T05:11:44.766Z,99.99
2018-11-03T05:12:44.741Z,99.99
2018-11-03T05:13:44.540Z,99.99
2018-11-03T05:14:44.282Z,99.99
2018-11-03T05:15:44.548Z,99.99
2018-11-03T05:16:44.255Z,99.99
2018-11-03T05:17:44.505Z,99.99
2018-11-03T05:18:44.507Z,99.99
2018-11-03T05:19:44.233Z,99.99
2018-11-03T05:20:44.487Z,99.99
2018-11-03T05:21:44.230Z,99.99
2018-11-03T05:22:44.477Z,99.99
2018-11-03T05:23:44.468Z,99.99
2018-11-03T05:24:44.465Z,99.99
2018-11-03T05:25:44.461Z,99.99
2018-11-03T05:26:44.209Z,99.99
2018-11-03T05:27:44.180Z,99.99
2018-11-03T05:28:44.190Z,99.99
2018-11-03T05:29:44.433Z,99.99
2018-11-03T05:30:44.432Z,99.99
2018-11-03T05:31:44.635Z,99.99
2018-11-03T05:32:44.159Z,99.99
2018-11-03T05:33:44.413Z,99.99
2018-11-03T05:34:44.411Z,99.99
2018-11-03T05:35:44.421Z,99.99
2018-11-03T05:36:44.131Z,99.99
2018-11-03T05:37:44.141Z,99.99
2018-11-03T05:38:44.127Z,99.99
2018-11-03T05:39:44.393Z,99.99
2018-11-03T05:40:44.371Z,99.99
2018-11-03T05:41:44.096Z,99.99
2018-11-03T05:42:44.683Z,99.99
2018-11-03T05:43:44.358Z,99.99
2018-11-03T05:44:44.085Z,99.99
2018-11-03T05:45:44.362Z,99.99
2018-11-03T05:46:44.331Z,99.99
2018-11-03T05:47:44.071Z,99.99
2018-11-03T05:48:44.077Z,99.99
2018-11-03T05:49:44.053Z,99.99
2018-11-03T05:50:44.320Z,99.99
2018-11-03T05:51:44.318Z,99.99
2018-11-03T05:52:44.310Z,99.99
2018-11-03T05:53:44.297Z,99.99
2018-11-03T05:54:44.300Z,99.99
2018-11-03T05:55:44.299Z,99.99
2018-11-03T05:56:44.025Z,99.99
2018-11-03T05:57:44.272Z,99.99
2018-11-03T05:58:44.083Z,99.99
2018-11-03T05:59:43.995Z,99.99
2018-11-03T06:00:44.245Z,99.99
2018-11-03T06:01:44.258Z,99.99
2018-11-03T06:02:43.978Z,99.99
2018-11-03T06:03:44.238Z,99.99
2018-11-03T06:04:43.973Z,99.99
2018-11-03T06:05:44.221Z,99.99
2018-11-03T06:06:43.953Z,99.99
2018-11-03T06:07:43.949Z,99.99
2018-11-03T06:08:44.002Z,99.99
2018-11-03T06:09:44.209Z,99.99
2018-11-03T06:10:43.937Z,99.99
2018-11-03T06:11:44.186Z,99.99
2018-11-03T06:12:43.924Z,99.99
2018-11-03T06:13:44.190Z,99.99
2018-11-03T06:14:44.174Z,99.99
2018-11-03T06:15:44.464Z,99.99
2018-11-03T06:16:44.172Z,99.99
2018-11-03T06:17:44.159Z,99.99
2018-11-03T06:18:43.888Z,99.99
2018-11-03T06:19:44.144Z,99.99
2018-11-03T06:20:44.132Z,99.99
2018-11-03T06:21:44.157Z,99.99
2018-11-03T06:22:44.035Z,99.99
2018-11-03T06:23:43.970Z,99.99
2018-11-03T06:24:43.870Z,99.99
2018-11-03T06:25:44.111Z,99.99
2018-11-03T06:26:43.842Z,99.99
2018-11-03T06:27:44.103Z,99.99
2018-11-03T06:28:43.887Z,99.99
2018-11-03T06:29:44.085Z,99.99
2018-11-03T06:30:44.090Z,99.99
2018-11-03T06:31:44.079Z,99.99
2018-11-03T06:32:44.259Z,99.99
2018-11-03T06:33:43.791Z,99.99
2018-11-03T06:34:44.050Z,99.99
2018-11-03T06:35:43.783Z,99.99
2018-11-03T06:36:44.038Z,99.99
2018-11-03T06:37:43.781Z,99.99
2018-11-03T06:38:44.166Z,99.99
2018-11-03T06:39:43.774Z,99.99
2018-11-03T06:40:44.062Z,99.99
2018-11-03T06:41:44.014Z,99.99
2018-11-03T06:42:44.225Z,99.99
2018-11-03T06:43:44.017Z,99.99
2018-11-03T06:44:43.997Z,99.99
2018-11-03T06:45:43.731Z,99.99
2018-11-03T06:46:44.263Z,99.99
2018-11-03T06:47:43.993Z,99.99
2018-11-03T06:48:43.994Z,99.99
2018-11-03T06:49:44.267Z,99.99
2018-11-03T06:50:43.700Z,99.99
2018-11-03T06:51:43.949Z,99.99
2018-11-03T06:52:44.239Z,99.99
2018-11-03T06:53:43.690Z,99.99
2018-11-03T06:54:43.973Z,99.99
2018-11-03T06:55:43.945Z,99.99
2018-11-03T06:56:43.928Z,99.99
2018-11-03T06:57:43.931Z,99.99
2018-11-03T06:58:43.933Z,99.99
2018-11-03T06:59:43.651Z,99.99
2018-11-03T07:00:43.914Z,99.99
2018-11-03T07:01:43.905Z,99.99
2018-11-03T07:02:44.232Z,99.99
2018-11-03T07:03:43.900Z,99.99
2018-11-03T07:04:43.889Z,99.99
2018-11-03T07:05:43.901Z,99.99
2018-11-03T07:06:43.897Z,99.99
2018-11-03T07:07:43.893Z,99.99
2018-11-03T07:08:43.614Z,99.99
2018-11-03T07:09:43.862Z,99.99
2018-11-03T07:10:43.598Z,99.99
2018-11-03T07:11:44.132Z,99.99
2018-11-03T07:12:44.640Z,99.99
2018-11-03T07:13:43.855Z,99.99
2018-11-03T07:14:43.850Z,99.99
2018-11-03T07:15:43.832Z,99.99
2018-11-03T07:16:43.852Z,99.99
2018-11-03T07:17:43.823Z,99.99
2018-11-03T07:18:43.818Z,99.99
2018-11-03T07:19:47.081Z,99.99
2018-11-03T07:20:43.545Z,99.99
2018-11-03T07:21:44.066Z,99.99
2018-11-03T07:22:44.119Z,99.99
2018-11-03T07:23:43.814Z,99.99
2018-11-03T07:24:43.539Z,99.99
2018-11-03T07:25:43.797Z,99.99
2018-11-03T07:26:43.793Z,99.99
2018-11-03T07:27:43.785Z,99.99
2018-11-03T07:28:43.782Z,99.99
2018-11-03T07:29:43.677Z,99.99
2018-11-03T07:30:43.758Z,99.99
2018-11-03T07:31:43.987Z,99.99
2018-11-03T07:32:43.530Z,99.99
2018-11-03T07:33:43.730Z,99.99
2018-11-03T07:34:43.746Z,99.99
2018-11-03T07:35:43.477Z,99.99
2018-11-03T07:36:43.719Z,99.99
2018-11-03T07:37:43.747Z,99.99
2018-11-03T07:38:43.717Z,99.99
2018-11-03T07:39:43.718Z,99.99
2018-11-03T07:40:43.805Z,99.99
2018-11-03T07:41:44.153Z,99.99
2018-11-03T07:42:43.935Z,99.99
2018-11-03T07:43:43.691Z,99.99
2018-11-03T07:44:43.681Z,99.99
2018-11-03T07:45:43.432Z,99.99
2018-11-03T07:46:43.678Z,99.99
2018-11-03T07:47:43.682Z,99.99
2018-11-03T07:48:43.502Z,99.99
2018-11-03T07:49:43.669Z,99.99
2018-11-03T07:50:44.706Z,99.99
2018-11-03T07:51:43.660Z,99.99
2018-11-03T07:52:43.659Z,99.99
2018-11-03T07:53:43.394Z,99.99
2018-11-03T07:54:43.922Z,99.99
2018-11-03T07:55:43.408Z,99.99
2018-11-03T07:56:43.364Z,99.99
2018-11-03T07:57:43.370Z,99.99
2018-11-03T07:58:43.654Z,99.99
2018-11-03T07:59:43.357Z,99.99
2018-11-03T08:00:43.520Z,99.99
2018-11-03T08:01:43.597Z,99.99
2018-11-03T08:02:43.599Z,99.99
2018-11-03T08:03:43.596Z,99.99
2018-11-03T08:04:43.598Z,99.99
2018-11-03T08:05:43.321Z,99.99
2018-11-03T08:06:43.590Z,99.99
2018-11-03T08:07:43.577Z,99.99
2018-11-03T08:08:43.573Z,99.99
2018-11-03T08:09:43.573Z,99.99
2018-11-03T08:10:43.319Z,99.99
2018-11-03T08:11:43.551Z,99.99
2018-11-03T08:12:43.538Z,99.99
2018-11-03T08:13:43.538Z,99.99
2018-11-03T08:14:43.531Z,99.99
2018-11-03T08:15:43.782Z,99.99
2018-11-03T08:16:43.552Z,99.99
2018-11-03T08:17:43.532Z,99.99
2018-11-03T08:18:43.528Z,99.99
2018-11-03T08:19:43.260Z,99.99
2018-11-03T08:20:43.254Z,99.99
2018-11-03T08:21:43.257Z,99.99
2018-11-03T08:22:43.600Z,99.99
2018-11-03T08:23:43.642Z,99.99
2018-11-03T08:24:43.508Z,99.99
2018-11-03T08:25:43.496Z,99.99
2018-11-03T08:26:43.235Z,99.99
2018-11-03T08:27:43.491Z,99.99
2018-11-03T08:28:43.482Z,99.99
2018-11-03T08:29:43.490Z,99.99
2018-11-03T08:30:43.772Z,99.99
2018-11-03T08:31:43.305Z,99.99
2018-11-03T08:32:43.463Z,99.99
2018-11-03T08:33:43.204Z,99.99
2018-11-03T08:34:43.470Z,99.99
2018-11-03T08:35:43.454Z,99.99
2018-11-03T08:36:43.449Z,99.99
2018-11-03T08:37:43.185Z,99.99
2018-11-03T08:38:43.443Z,99.99
2018-11-03T08:39:43.792Z,99.99
2018-11-03T08:40:43.688Z,99.99
2018-11-03T08:41:43.460Z,99.99
2018-11-03T08:42:43.439Z,99.99
2018-11-03T08:43:43.420Z,99.99
2018-11-03T08:44:43.417Z,99.99
2018-11-03T08:45:43.425Z,99.99
2018-11-03T08:46:43.399Z,99.99
2018-11-03T08:47:43.414Z,99.99
2018-11-03T08:48:43.732Z,99.99
2018-11-03T08:49:43.131Z,99.99
2018-11-03T08:50:43.536Z,99.99
2018-11-03T08:51:43.425Z,99.99
2018-11-03T08:52:43.397Z,99.99
2018-11-03T08:53:43.109Z,99.99
2018-11-03T08:54:43.391Z,99.99
2018-11-03T08:55:43.375Z,99.99
2018-11-03T08:56:43.095Z,99.99
2018-11-03T08:57:43.365Z,99.99
2018-11-03T08:58:43.377Z,99.99
2018-11-03T08:59:43.711Z,99.99
2018-11-03T09:00:43.076Z,99.99
2018-11-03T09:01:43.381Z,99.99
2018-11-03T09:02:43.377Z,99.99
2018-11-03T09:03:43.072Z,99.99
2018-11-03T09:04:43.335Z,99.99
2018-11-03T09:05:43.328Z,99.99
2018-11-03T09:06:43.380Z,99.99
2018-11-03T09:07:43.342Z,99.99
2018-11-03T09:08:43.047Z,99.75
2018-11-03T09:09:43.053Z,99.75
2018-11-03T09:10:46.893Z,99.18
2018-11-03T09:11:43.769Z,99.65
2018-11-03T09:12:43.134Z,99.46
2018-11-03T09:13:43.079Z,99.65
2018-11-03T09:14:43.848Z,99.46
2018-11-03T09:15:43.159Z,99.37
2018-11-03T09:16:43.092Z,99.94
2018-11-03T09:17:43.372Z,99.84
2018-11-03T09:18:43.441Z,99.37
2018-11-03T09:19:43.275Z,98.51
2018-11-03T09:20:43.255Z,98.41
2018-11-03T09:21:43.041Z,97.84
2018-11-03T09:22:43.682Z,97.99
2018-11-03T09:23:42.996Z,96.75
2018-11-03T09:24:43.262Z,97.13
2018-11-03T09:25:43.236Z,97.32
2018-11-03T09:26:43.233Z,97.27
2018-11-03T09:27:42.973Z,96.56
2018-11-03T09:28:43.224Z,97.27
2018-11-03T09:29:42.971Z,96.98
2018-11-03T09:30:43.220Z,96.98
2018-11-03T09:31:42.987Z,96.41
2018-11-03T09:32:42.973Z,97.51
2018-11-03T09:33:43.217Z,97.17
2018-11-03T09:34:43.399Z,97.46
2018-11-03T09:35:42.955Z,97.17
2018-11-03T09:36:42.936Z,97.17
2018-11-03T09:37:42.930Z,97.36
2018-11-03T09:38:43.461Z,97.36
2018-11-03T09:39:43.189Z,97.27
2018-11-03T09:40:42.928Z,97.65
2018-11-03T09:41:43.421Z,97.46
2018-11-03T09:42:42.966Z,98.7
2018-11-03T09:43:42.913Z,97.08
2018-11-03T09:44:43.214Z,97.27
2018-11-03T09:45:43.170Z,97.13
2018-11-03T09:46:43.168Z,96.94
2018-11-03T09:47:43.169Z,96.17
2018-11-03T09:48:43.160Z,96.65
2018-11-03T09:49:43.152Z,95.7
2018-11-03T09:50:43.328Z,96.17
2018-11-03T09:51:43.426Z,95.7
2018-11-03T09:52:43.138Z,96.08
2018-11-03T09:53:42.884Z,96.08
2018-11-03T09:54:42.893Z,96.56
2018-11-03T09:55:43.134Z,95.89
2018-11-03T09:56:43.491Z,95.89
2018-11-03T09:57:43.123Z,96.56
2018-11-03T09:58:43.130Z,96.27
2018-11-03T09:59:43.153Z,96.75
2018-11-03T10:00:43.106Z,96.65
2018-11-03T10:01:42.846Z,96.94
2018-11-03T10:02:42.841Z,97.32
2018-11-03T10:03:43.109Z,96.84
2018-11-03T10:04:43.092Z,95.32
2018-11-03T10:05:43.106Z,94.46
2018-11-03T10:06:43.382Z,95.03
2018-11-03T10:07:43.090Z,95.41
2018-11-03T10:08:42.828Z,95.22
2018-11-03T10:09:42.822Z,95.79
2018-11-03T10:10:42.814Z,94.93
2018-11-03T10:11:43.080Z,94.65
2018-11-03T10:12:43.434Z,94.46
2018-11-03T10:13:42.806Z,94.51
2018-11-03T10:14:43.076Z,94.12
2018-11-03T10:15:43.280Z,93.84
2018-11-03T10:16:42.812Z,93.93
2018-11-03T10:17:43.065Z,93.84
2018-11-03T10:18:42.801Z,93.98
2018-11-03T10:19:43.047Z,94.56
2018-11-03T10:20:42.788Z,94.93
2018-11-03T10:21:44.915Z,94.74
2018-11-03T10:22:43.370Z,94.93
2018-11-03T10:23:43.034Z,94.65
2018-11-03T10:24:43.063Z,94.46
2018-11-03T10:25:42.764Z,94.65
2018-11-03T10:26:43.065Z,94.84
2018-11-03T10:27:42.766Z,94.65
2018-11-03T10:28:43.016Z,94.56
2018-11-03T10:29:43.029Z,94.08
2018-11-03T10:30:43.052Z,94.17
2018-11-03T10:31:42.748Z,94.56
2018-11-03T10:32:43.337Z,94.74
2018-11-03T10:33:43.387Z,94.65
2018-11-03T10:34:42.737Z,94.93
2018-11-03T10:35:42.741Z,94.65
2018-11-03T10:36:43.017Z,95.22
2018-11-03T10:37:42.736Z,95.12
2018-11-03T10:38:42.724Z,95.32
2018-11-03T10:39:42.723Z,94.84
2018-11-03T10:40:42.981Z,94.37
2018-11-03T10:41:43.032Z,94.74
2018-11-03T10:42:42.705Z,94.46
2018-11-03T10:43:42.961Z,93.55
2018-11-03T10:44:42.971Z,92.6
2018-11-03T10:45:42.965Z,92.88
2018-11-03T10:46:42.970Z,93.36
2018-11-03T10:47:42.974Z,92.98
2018-11-03T10:48:42.697Z,93.08
2018-11-03T10:49:42.945Z,93.36
2018-11-03T10:50:42.966Z,94.03
2018-11-03T10:51:42.687Z,93.84
2018-11-03T10:52:42.708Z,94.17
2018-11-03T10:53:43.080Z,93.55
2018-11-03T10:54:42.945Z,93.93
2018-11-03T10:55:42.929Z,93.74
2018-11-03T10:56:42.960Z,93.46
2018-11-03T10:57:42.947Z,93.08
2018-11-03T10:58:42.665Z,93.27
2018-11-03T10:59:42.716Z,93.36
2018-11-03T11:00:42.647Z,92.32
2018-11-03T11:01:42.953Z,93.08
2018-11-03T11:02:43.057Z,92.69
2018-11-03T11:03:43.168Z,91.93
2018-11-03T11:04:42.894Z,92.22
2018-11-03T11:05:42.893Z,92.5
2018-11-03T11:06:42.903Z,92.12
2018-11-03T11:07:42.937Z,92.22
2018-11-03T11:08:42.911Z,91.64
2018-11-03T11:09:42.701Z,91.27
2018-11-03T11:10:42.618Z,90.98
2018-11-03T11:11:42.882Z,90.98
2018-11-03T11:12:42.884Z,91.46
2018-11-03T11:13:42.894Z,91.07
2018-11-03T11:14:42.621Z,92.12
2018-11-03T11:15:43.163Z,91.64
2018-11-03T11:16:43.017Z,91.27
2018-11-03T11:17:42.602Z,91.46
2018-11-03T11:18:42.890Z,91.5
2018-11-03T11:19:42.870Z,91.64
2018-11-03T11:20:42.597Z,90.45
2018-11-03T11:21:42.869Z,90.26
2018-11-03T11:22:43.845Z,90.73
2018-11-03T11:23:43.420Z,89.69
2018-11-03T11:24:43.151Z,88.54
2018-11-03T11:25:42.860Z,88.92
2018-11-03T11:26:42.853Z,89.4
2018-11-03T11:27:42.583Z,88.92
2018-11-03T11:28:42.581Z,88.73
2018-11-03T11:29:42.584Z,87.97
2018-11-03T11:30:42.826Z,87.78
2018-11-03T11:31:42.926Z,87.3
2018-11-03T11:32:42.610Z,87.78
2018-11-03T11:33:43.115Z,87.97
2018-11-03T11:34:42.843Z,88.73
2018-11-03T11:35:42.832Z,89.02
2018-11-03T11:36:42.589Z,88.64
2018-11-03T11:37:43.185Z,87.97
2018-11-03T11:38:43.060Z,88.83
2018-11-03T11:39:42.561Z,88.64
2018-11-03T11:40:42.544Z,88.92
2018-11-03T11:41:42.548Z,89.88
2018-11-03T11:42:42.549Z,89.97
2018-11-03T11:43:42.543Z,90.26
2018-11-03T11:44:42.825Z,89.97
2018-11-03T11:45:42.833Z,89.97
2018-11-03T11:46:42.593Z,90.26
2018-11-03T11:47:42.792Z,91.02
2018-11-03T11:48:42.789Z,91.21
2018-11-03T11:49:42.530Z,90.36
2018-11-03T11:50:42.517Z,89.97
2018-11-03T11:51:42.777Z,89.97
2018-11-03T11:52:42.785Z,89.69
2018-11-03T11:53:43.051Z,90.45
2018-11-03T11:54:42.897Z,90.26
2018-11-03T11:55:42.793Z,89.5
2018-11-03T11:56:42.519Z,89.21
2018-11-03T11:57:42.768Z,89.12
2018-11-03T11:58:42.780Z,88.92
2018-11-03T11:59:42.758Z,88.54
2018-11-03T12:00:43.083Z,88.54
2018-11-03T12:01:42.752Z,89.4
2018-11-03T12:02:43.081Z,90.64
2018-11-03T12:03:42.753Z,90.45
2018-11-03T12:04:42.499Z,90.36
2018-11-03T12:05:42.746Z,89.59
2018-11-03T12:06:42.488Z,89.5
2018-11-03T12:07:42.743Z,89.21
2018-11-03T12:08:42.749Z,89.31
2018-11-03T12:09:42.738Z,89.69
2018-11-03T12:10:42.469Z,87.92
2018-11-03T12:11:42.485Z,88.4
2018-11-03T12:12:42.495Z,88.97
2018-11-03T12:13:42.728Z,89.59
2018-11-03T12:14:42.731Z,88.92
2018-11-03T12:15:42.724Z,88.59
2018-11-03T12:16:42.726Z,88.78
2018-11-03T12:17:42.451Z,88.78
2018-11-03T12:18:42.721Z,88.49
2018-11-03T12:19:42.708Z,89.02
2018-11-03T12:20:42.447Z,89.12
2018-11-03T12:21:42.447Z,88.4
2018-11-03T12:22:42.448Z,87.92
2018-11-03T12:23:42.432Z,88.59
2018-11-03T12:24:42.684Z,87.63
2018-11-03T12:25:43.097Z,87.44
2018-11-03T12:26:42.864Z,87.25
2018-11-03T12:27:42.425Z,87.25
2018-11-03T12:28:42.695Z,86.77
2018-11-03T12:29:42.692Z,87.06
2018-11-03T12:30:42.692Z,87.35
2018-11-03T12:31:42.679Z,87.44
2018-11-03T12:32:42.979Z,88.01
2018-11-03T12:33:42.691Z,87.73
2018-11-03T12:34:42.417Z,87.44
2018-11-03T12:35:42.677Z,88.11
2018-11-03T12:36:42.408Z,87.25
2018-11-03T12:37:42.700Z,86.77
2018-11-03T12:38:42.405Z,86.72
2018-11-03T12:39:42.673Z,86.53
2018-11-03T12:40:42.903Z,86.49
2018-11-03T12:41:42.654Z,86.68
2018-11-03T12:42:43.036Z,87.25
2018-11-03T12:43:42.395Z,86.91
2018-11-03T12:44:42.770Z,86.82
2018-11-03T12:45:42.390Z,86.63
2018-11-03T12:46:42.667Z,86.34
2018-11-03T12:47:42.668Z,85.58
2018-11-03T12:48:42.396Z,85.58
2018-11-03T12:49:42.421Z,86.05
2018-11-03T12:50:42.646Z,86.91
2018-11-03T12:51:42.749Z,86.39
2018-11-03T12:52:42.382Z,86.77
2018-11-03T12:53:42.670Z,87.35